Time;durP1;ratioP1;P1;durP2;ratioP2;P2;SDS_P1;SDS_P2;PMS_P1;PMS_P2;Temp;Humidity;BMP_temperature;BMP_pressure;BME280_temperature;BME280_humidity;BME280_pressure;Samples;Min_cycle;Max_cycle;Signal;HPM_P1;HPM_P2
2021/04/09 00:02:04;;;;;;;8.27;4.93;;;2.70;49.20;;;;;;6278717;22;20189;-79
2021/04/09 00:04:30;;;;;;;7.95;4.50;;;2.70;49.30;;;;;;6281153;22;20225;-82
2021/04/09 00:06:57;;;;;;;5.78;4.30;;;2.70;49.40;;;;;;6282161;22;20227;-79
2021/04/09 00:09:23;;;;;;;7.70;4.70;;;2.60;49.50;;;;;;6287178;22;20165;-79
2021/04/09 00:11:50;;;;;;;7.20;4.75;;;2.80;49.60;;;;;;6302716;22;20177;-82
2021/04/09 00:14:17;;;;;;;7.13;4.65;;;2.80;49.30;;;;;;6301172;22;20506;-79
2021/04/09 00:16:44;;;;;;;6.30;4.30;;;2.80;49.40;;;;;;6300867;22;20201;-77
2021/04/09 00:19:14;;;;;;;10.32;4.65;;;2.80;49.30;;;;;;6321362;22;20433;-78
2021/04/09 00:21:42;;;;;;;4.95;4.30;;;2.70;49.30;;;;;;6324393;22;20614;-78
2021/04/09 00:24:09;;;;;;;5.82;4.30;;;2.70;49.50;;;;;;6311727;22;20261;-77
2021/04/09 00:26:36;;;;;;;6.72;4.97;;;2.70;49.70;;;;;;6304924;22;20232;-78
2021/04/09 00:29:02;;;;;;;5.38;4.82;;;2.80;49.60;;;;;;6291098;22;20188;-78
2021/04/09 00:31:29;;;;;;;7.13;4.93;;;2.70;49.30;;;;;;6281500;22;20181;-78
2021/04/09 00:33:56;;;;;;;7.53;5.10;;;2.60;50.20;;;;;;6282637;22;20177;-78
2021/04/09 00:36:22;;;;;;;4.40;4.00;;;2.70;49.50;;;;;;6280884;22;20276;-78
2021/04/09 00:38:49;;;;;;;5.43;4.30;;;2.70;49.50;;;;;;6277681;22;20262;-79
2021/04/09 00:41:16;;;;;;;5.63;4.03;;;2.70;49.30;;;;;;6282081;22;20208;-78
2021/04/09 00:43:43;;;;;;;5.53;4.10;;;2.70;48.70;;;;;;6278956;22;20243;-78
2021/04/09 00:46:10;;;;;;;7.82;4.80;;;2.70;48.60;;;;;;6281168;22;20189;-78
2021/04/09 00:48:36;;;;;;;5.25;3.83;;;2.70;48.50;;;;;;6284004;22;20185;-79
2021/04/09 00:51:06;;;;;;;5.40;4.22;;;2.70;48.60;;;;;;6283016;22;20174;-78
2021/04/09 00:53:33;;;;;;;6.10;4.75;;;2.60;48.50;;;;;;6281504;22;20252;-79
2021/04/09 00:56:03;;;;;;;5.50;3.83;;;2.60;49.30;;;;;;6288772;22;20184;-78
2021/04/09 00:58:30;;;;;;;5.88;4.47;;;2.50;48.90;;;;;;6283516;22;20184;-77
2021/04/09 01:00:57;;;;;;;10.70;4.28;;;2.50;49.20;;;;;;6282532;22;20252;-78
2021/04/09 01:03:24;;;;;;;5.20;4.70;;;2.50;49.30;;;;;;6282805;22;20209;-79
2021/04/09 01:05:53;;;;;;;8.40;4.18;;;2.60;49.10;;;;;;6283662;22;20185;-78
2021/04/09 01:08:21;;;;;;;5.30;4.57;;;2.60;48.60;;;;;;6284008;22;20204;-79
2021/04/09 01:10:47;;;;;;;5.40;4.20;;;2.60;48.40;;;;;;6282774;22;20251;-78
2021/04/09 01:13:14;;;;;;;6.80;4.68;;;2.70;48.10;;;;;;6281666;22;20461;-78
2021/04/09 01:15:41;;;;;;;6.65;4.35;;;2.70;48.20;;;;;;6282043;22;20181;-79
2021/04/09 01:18:12;;;;;;;7.25;4.60;;;2.60;48.10;;;;;;6283636;22;20200;-78
2021/04/09 01:20:50;;;;;;;8.68;4.75;;;2.60;48.50;;;;;;6284358;22;20244;-79
2021/04/09 01:23:46;;;;;;;6.45;4.18;;;2.60;48.50;;;;;;6283552;22;20181;-79
2021/04/09 01:26:50;;;;;;;8.95;5.00;;;2.60;49.40;;;;;;6284548;22;20205;-78
2021/04/09 01:29:53;;;;;;;10.63;5.15;;;2.60;49.90;;;;;;6285549;22;20220;-78
2021/04/09 01:32:21;;;;;;;9.68;5.80;;;2.50;50.60;;;;;;6285874;22;20169;-78
2021/04/09 01:34:52;;;;;;;7.90;5.50;;;2.40;51.20;;;;;;6291788;22;20207;-78
2021/04/09 01:37:22;;;;;;;10.18;5.50;;;2.40;51.90;;;;;;6295685;22;20201;-78
2021/04/09 01:39:53;;;;;;;8.25;5.80;;;2.20;52.30;;;;;;6301058;22;20178;-77
2021/04/09 01:42:22;;;;;;;6.80;5.00;;;2.10;52.50;;;;;;6300132;22;20162;-77
2021/04/09 01:44:51;;;;;;;6.60;4.80;;;2.10;51.90;;;;;;6301171;22;20201;-79
2021/04/09 01:47:20;;;;;;;7.35;4.95;;;2.00;50.70;;;;;;6283675;22;20200;-78
2021/04/09 01:49:49;;;;;;;5.47;4.53;;;1.90;50.40;;;;;;6278984;22;20213;-78
2021/04/09 01:52:16;;;;;;;9.00;4.40;;;1.80;50.60;;;;;;6281557;22;20182;-78
2021/04/09 01:54:45;;;;;;;8.05;4.97;;;1.70;51.00;;;;;;6284280;22;20184;-78
2021/04/09 01:57:12;;;;;;;4.50;3.80;;;1.70;51.30;;;;;;6282192;22;20224;-78
2021/04/09 01:59:40;;;;;;;9.50;4.55;;;1.60;51.30;;;;;;6292387;22;20656;-77
2021/04/09 02:02:08;;;;;;;6.40;5.00;;;1.50;51.80;;;;;;6282304;22;20184;-77
2021/04/09 02:04:35;;;;;;;4.20;3.80;;;1.50;52.30;;;;;;6296702;22;20181;-77
2021/04/09 02:07:03;;;;;;;7.32;4.70;;;1.50;52.30;;;;;;6283241;22;20202;-77
2021/04/09 02:09:32;;;;;;;8.57;5.00;;;1.50;52.30;;;;;;6280128;22;20180;-77
2021/04/09 02:12:00;;;;;;;12.25;4.72;;;1.40;52.20;;;;;;6281260;22;20181;-77
2021/04/09 02:14:28;;;;;;;5.35;4.18;;;1.40;52.20;;;;;;6282561;22;20205;-78
2021/04/09 02:16:56;;;;;;;7.50;4.50;;;1.40;52.80;;;;;;6278195;22;20197;-77
2021/04/09 02:19:24;;;;;;;6.38;4.10;;;1.40;53.50;;;;;;6282210;22;20256;-77
2021/04/09 02:21:51;;;;;;;5.35;4.70;;;1.50;53.80;;;;;;6284355;22;20445;-77
2021/04/09 02:24:19;;;;;;;7.63;4.65;;;1.50;53.80;;;;;;6284197;22;20204;-78
2021/04/09 02:26:46;;;;;;;7.00;4.68;;;1.40;53.80;;;;;;6293890;22;20201;-78
2021/04/09 02:29:12;;;;;;;6.10;4.15;;;1.40;54.40;;;;;;6287204;22;20174;-78
2021/04/09 02:31:40;;;;;;;6.50;4.78;;;1.50;55.20;;;;;;6284549;22;20234;-78
2021/04/09 02:34:06;;;;;;;7.28;4.70;;;1.40;55.20;;;;;;6284707;22;20188;-78
2021/04/09 02:36:33;;;;;;;5.10;4.60;;;1.40;55.40;;;;;;6281234;22;20201;-77
2021/04/09 02:39:05;;;;;;;6.32;5.00;;;1.40;55.60;;;;;;6286975;22;20258;-78
2021/04/09 02:41:36;;;;;;;5.50;4.65;;;1.40;56.40;;;;;;6292783;22;20165;-77
2021/04/09 02:44:03;;;;;;;5.78;5.28;;;1.40;56.50;;;;;;6288221;22;20200;-78
2021/04/09 02:46:36;;;;;;;5.03;4.30;;;1.40;56.40;;;;;;6280708;22;20694;-77
2021/04/09 02:49:12;;;;;;;5.00;4.28;;;1.30;56.70;;;;;;6284773;22;20165;-79
2021/04/09 02:51:41;;;;;;;8.77;4.75;;;1.30;56.70;;;;;;6276664;22;20216;-77
2021/04/09 02:54:11;;;;;;;7.03;4.60;;;1.40;56.80;;;;;;6277213;22;20524;-77
2021/04/09 02:56:40;;;;;;;6.20;4.80;;;1.30;56.80;;;;;;6276825;22;20694;-77
2021/04/09 02:59:10;;;;;;;6.57;5.03;;;1.30;57.30;;;;;;6277113;22;20308;-77
2021/04/09 03:01:39;;;;;;;7.97;4.93;;;1.30;57.60;;;;;;6278993;22;20169;-78
2021/04/09 03:04:07;;;;;;;7.82;5.38;;;1.30;57.80;;;;;;6284534;22;20193;-78
2021/04/09 03:06:37;;;;;;;6.88;5.18;;;1.40;58.00;;;;;;6287079;22;20667;-78
2021/04/09 03:09:04;;;;;;;6.60;4.78;;;1.30;57.80;;;;;;6286026;22;20173;-79
2021/04/09 03:11:31;;;;;;;5.40;4.53;;;1.40;58.20;;;;;;6287208;22;20188;-80
2021/04/09 03:13:59;;;;;;;7.15;5.57;;;1.40;58.20;;;;;;6276699;22;20212;-78
2021/04/09 03:16:26;;;;;;;9.48;4.45;;;1.30;58.30;;;;;;6275902;22;20211;-78
2021/04/09 03:18:53;;;;;;;7.32;5.00;;;1.30;58.30;;;;;;6276102;22;20178;-78
2021/04/09 03:21:19;;;;;;;7.03;4.45;;;1.20;58.40;;;;;;6276392;22;20204;-79
2021/04/09 03:23:46;;;;;;;7.70;4.70;;;1.20;58.60;;;;;;6275014;22;20197;-78
2021/04/09 03:26:12;;;;;;;7.30;4.90;;;1.20;58.70;;;;;;6275879;22;20257;-79
2021/04/09 03:28:39;;;;;;;6.90;4.60;;;1.20;58.60;;;;;;6275539;22;20188;-79
2021/04/09 03:31:06;;;;;;;6.20;5.07;;;1.20;58.50;;;;;;6275574;22;20208;-79
2021/04/09 03:33:32;;;;;;;5.70;4.60;;;1.20;58.60;;;;;;6275093;22;20177;-79
2021/04/09 03:35:59;;;;;;;8.65;5.28;;;1.20;59.50;;;;;;6275687;22;20181;-79
2021/04/09 03:38:25;;;;;;;7.38;4.40;;;1.10;58.80;;;;;;6275656;22;20509;-79
2021/04/09 03:40:52;;;;;;;5.72;4.78;;;1.10;59.20;;;;;;6276405;22;20177;-79
2021/04/09 03:43:18;;;;;;;7.68;5.38;;;1.00;59.40;;;;;;6274906;22;20685;-79
2021/04/09 03:45:46;;;;;;;5.43;4.85;;;1.10;59.50;;;;;;6275698;22;20219;-79
2021/04/09 03:48:13;;;;;;;7.22;5.00;;;1.10;59.40;;;;;;6275762;22;20197;-80
2021/04/09 03:50:39;;;;;;;8.43;5.13;;;1.10;59.40;;;;;;6276400;22;20212;-78
2021/04/09 03:53:06;;;;;;;7.63;5.47;;;1.10;59.70;;;;;;6275103;22;20226;-78
2021/04/09 03:55:33;;;;;;;11.85;5.10;;;1.10;59.30;;;;;;6276419;22;20184;-79
2021/04/09 03:58:00;;;;;;;7.50;5.05;;;1.20;59.40;;;;;;6275455;22;20235;-79
2021/04/09 04:00:26;;;;;;;7.30;5.00;;;1.20;59.00;;;;;;6275977;22;20200;-79
2021/04/09 04:02:54;;;;;;;4.95;4.20;;;1.30;58.50;;;;;;6282278;22;20177;-79
2021/04/09 04:05:22;;;;;;;7.50;4.90;;;1.20;58.00;;;;;;6280922;22;20304;-78
2021/04/09 04:07:48;;;;;;;5.90;4.68;;;1.20;58.10;;;;;;6275399;22;20228;-78
2021/04/09 04:10:16;;;;;;;11.77;5.40;;;1.20;58.10;;;;;;6275352;22;20181;-78
2021/04/09 04:12:43;;;;;;;5.63;4.55;;;1.30;58.30;;;;;;6275675;22;20184;-78
2021/04/09 04:15:09;;;;;;;6.55;4.68;;;1.20;58.30;;;;;;6279208;22;20649;-79
2021/04/09 04:17:36;;;;;;;7.38;4.93;;;1.20;58.10;;;;;;6289532;22;20197;-80
2021/04/09 04:20:03;;;;;;;7.65;5.15;;;1.20;58.50;;;;;;6293682;22;20180;-78
2021/04/09 04:22:30;;;;;;;7.60;4.53;;;1.20;58.40;;;;;;6286458;22;20188;-79
2021/04/09 04:24:56;;;;;;;5.43;4.50;;;1.20;58.30;;;;;;6276002;22;20700;-78
2021/04/09 04:27:23;;;;;;;6.85;5.03;;;1.20;58.80;;;;;;6286084;22;20192;-79
2021/04/09 04:29:49;;;;;;;7.78;4.90;;;1.10;58.70;;;;;;6297754;22;20274;-80
2021/04/09 04:32:16;;;;;;;8.38;5.50;;;1.10;59.00;;;;;;6297669;22;20181;-79
2021/04/09 04:34:42;;;;;;;6.03;5.03;;;1.10;59.50;;;;;;6298590;22;20177;-79
2021/04/09 04:37:08;;;;;;;8.13;5.07;;;1.10;59.60;;;;;;6297582;22;20197;-79
2021/04/09 04:39:36;;;;;;;9.02;5.45;;;1.10;59.70;;;;;;6292508;22;20219;-79
2021/04/09 04:42:03;;;;;;;8.57;5.60;;;1.10;59.90;;;;;;6290611;22;20181;-79
2021/04/09 04:44:30;;;;;;;7.65;4.75;;;1.10;60.00;;;;;;6276709;22;20197;-78
2021/04/09 04:46:56;;;;;;;5.82;4.90;;;1.10;60.00;;;;;;6275358;22;20412;-78
2021/04/09 04:49:23;;;;;;;8.57;4.95;;;1.10;59.90;;;;;;6275198;22;20213;-78
2021/04/09 04:51:49;;;;;;;9.57;4.68;;;1.10;59.60;;;;;;6274494;22;20177;-79
2021/04/09 04:54:15;;;;;;;8.77;5.20;;;1.00;60.10;;;;;;6275119;22;20264;-79
2021/04/09 04:56:43;;;;;;;6.80;4.50;;;1.10;61.00;;;;;;6276013;22;20202;-79
2021/04/09 04:59:09;;;;;;;7.10;5.22;;;1.20;60.60;;;;;;6279681;22;20177;-79
2021/04/09 05:01:35;;;;;;;9.20;4.75;;;1.30;60.20;;;;;;6275888;22;20185;-79
2021/04/09 05:04:02;;;;;;;5.55;4.90;;;1.30;60.70;;;;;;6275443;22;20229;-79
2021/04/09 05:06:28;;;;;;;5.93;4.70;;;1.40;59.80;;;;;;6275057;22;20193;-79
2021/04/09 05:08:55;;;;;;;6.47;4.88;;;1.50;59.30;;;;;;6276000;22;20201;-78
2021/04/09 05:11:22;;;;;;;7.20;5.00;;;1.60;58.50;;;;;;6275252;22;20273;-79
2021/04/09 05:13:49;;;;;;;5.32;4.68;;;1.70;58.00;;;;;;6274797;22;20508;-79
2021/04/09 05:16:16;;;;;;;10.45;4.57;;;1.80;57.90;;;;;;6274917;22;20221;-79
2021/04/09 05:18:42;;;;;;;9.18;4.88;;;2.00;56.50;;;;;;6275325;22;20261;-79
2021/04/09 05:21:09;;;;;;;7.72;5.38;;;2.10;55.20;;;;;;6274149;22;20260;-79
2021/04/09 05:23:35;;;;;;;7.82;4.78;;;2.50;54.60;;;;;;6274273;22;20194;-78
2021/04/09 05:26:02;;;;;;;5.40;4.90;;;2.90;53.50;;;;;;6277156;22;20184;-80
2021/04/09 05:28:28;;;;;;;7.22;4.90;;;3.20;49.50;;;;;;6275196;22;20704;-78
2021/04/09 05:30:56;;;;;;;7.07;4.60;;;3.30;48.40;;;;;;6274830;22;20321;-79
2021/04/09 05:33:23;;;;;;;8.02;4.80;;;3.30;47.60;;;;;;6277446;22;20261;-78
2021/04/09 05:35:49;;;;;;;6.10;5.07;;;3.50;48.00;;;;;;6277302;22;20177;-80
2021/04/09 05:38:16;;;;;;;6.68;4.50;;;3.60;46.80;;;;;;6278063;22;20208;-80
2021/04/09 05:40:42;;;;;;;6.80;4.65;;;3.90;45.80;;;;;;6277035;22;20189;-80
2021/04/09 05:43:08;;;;;;;5.70;4.63;;;4.00;45.00;;;;;;6275254;22;20211;-79
2021/04/09 05:45:35;;;;;;;8.45;4.25;;;3.90;45.60;;;;;;6274373;22;20233;-80
2021/04/09 05:48:05;;;;;;;8.18;5.18;;;4.10;45.10;;;;;;6276431;22;20674;-80
2021/04/09 05:50:31;;;;;;;7.65;4.55;;;4.10;43.80;;;;;;6277073;22;20173;-81
2021/04/09 05:52:58;;;;;;;9.38;5.30;;;4.10;43.50;;;;;;6276656;22;20267;-79
2021/04/09 05:55:24;;;;;;;6.07;4.47;;;4.50;43.00;;;;;;6276842;22;20256;-80
2021/04/09 05:57:51;;;;;;;6.43;4.68;;;4.90;41.50;;;;;;6276642;22;20197;-80
2021/04/09 06:00:18;;;;;;;12.05;4.45;;;5.10;40.00;;;;;;6277824;22;20580;-80
2021/04/09 06:02:45;;;;;;;6.25;4.25;;;5.50;39.60;;;;;;6295752;22;20204;-80
2021/04/09 06:05:12;;;;;;;6.50;4.80;;;5.90;38.60;;;;;;6287333;22;20197;-79
2021/04/09 06:07:39;;;;;;;6.57;4.38;;;6.20;37.20;;;;;;6280349;22;20201;-81
2021/04/09 06:10:07;;;;;;;5.88;4.38;;;6.40;37.20;;;;;;6282707;22;20185;-82
2021/04/09 06:12:34;;;;;;;6.65;4.53;;;6.20;37.10;;;;;;6288572;22;20181;-80
2021/04/09 06:15:00;;;;;;;5.20;3.97;;;5.60;36.70;;;;;;6283839;22;20618;-81
2021/04/09 06:17:26;;;;;;;7.20;4.32;;;5.30;38.50;;;;;;6280529;22;20216;-80
2021/04/09 06:19:53;;;;;;;7.07;4.30;;;5.10;38.90;;;;;;6281303;22;20643;-81
2021/04/09 06:22:20;;;;;;;5.40;3.97;;;4.80;39.30;;;;;;6279979;22;20197;-80
2021/04/09 06:24:46;;;;;;;7.15;5.38;;;4.90;40.20;;;;;;6281362;22;20201;-81
2021/04/09 06:27:13;;;;;;;8.40;4.80;;;4.90;40.00;;;;;;6279917;22;20566;-80
2021/04/09 06:29:39;;;;;;;6.43;4.55;;;5.10;39.60;;;;;;6279198;22;20178;-81
2021/04/09 06:32:07;;;;;;;4.97;4.32;;;5.30;39.30;;;;;;6279984;22;20245;-80
2021/04/09 06:34:33;;;;;;;6.22;4.60;;;5.30;38.50;;;;;;6280803;22;20177;-79
2021/04/09 06:37:00;;;;;;;6.32;4.43;;;5.20;38.40;;;;;;6278735;22;20201;-79
2021/04/09 06:39:27;;;;;;;4.88;4.28;;;5.40;38.20;;;;;;6278954;22;20215;-79
2021/04/09 06:41:54;;;;;;;8.38;4.63;;;5.50;39.20;;;;;;6292813;22;20188;-81
2021/04/09 06:44:20;;;;;;;6.28;4.35;;;5.60;37.80;;;;;;6285282;22;20201;-79
2021/04/09 06:46:47;;;;;;;5.65;4.65;;;5.80;37.30;;;;;;6295914;22;20180;-82
2021/04/09 06:49:14;;;;;;;4.78;4.35;;;6.00;37.00;;;;;;6297706;22;20173;-81
2021/04/09 06:51:45;;;;;;;5.28;4.57;;;5.90;36.90;;;;;;6297847;22;20212;-81
2021/04/09 06:54:12;;;;;;;6.60;5.20;;;6.00;37.00;;;;;;6297588;22;20176;-80
2021/04/09 06:56:42;;;;;;;6.75;5.30;;;6.10;37.10;;;;;;6295248;22;20197;-79
2021/04/09 06:59:14;;;;;;;6.47;4.65;;;5.90;36.90;;;;;;6291384;22;20181;-80
2021/04/09 07:01:44;;;;;;;6.75;5.30;;;5.80;36.80;;;;;;6293585;22;20168;-80
2021/04/09 07:04:10;;;;;;;6.53;4.85;;;6.10;37.10;;;;;;6286529;22;20639;-79
2021/04/09 07:06:37;;;;;;;7.05;5.00;;;6.40;36.30;;;;;;6284445;22;20449;-80
2021/04/09 07:09:04;;;;;;;5.22;4.65;;;6.60;35.00;;;;;;6288235;22;20165;-81
2021/04/09 07:11:31;;;;;;;6.10;4.68;;;6.80;34.60;;;;;;6298409;22;20194;-80
2021/04/09 07:13:58;;;;;;;5.60;4.82;;;6.80;34.20;;;;;;6300007;22;20169;-80
2021/04/09 07:16:24;;;;;;;6.38;4.70;;;6.80;34.40;;;;;;6294131;22;20228;-79
2021/04/09 07:18:52;;;;;;;5.97;4.57;;;6.90;33.70;;;;;;6290936;22;20165;-79
2021/04/09 07:21:20;;;;;;;7.15;4.90;;;7.10;33.60;;;;;;6286819;22;20177;-79
2021/04/09 07:23:47;;;;;;;8.38;4.88;;;7.30;33.00;;;;;;6283583;22;20684;-79
2021/04/09 07:26:42;;;;;;;5.85;5.15;;;7.40;32.40;;;;;;6280754;22;20247;-79
2021/04/09 07:29:39;;;;;;;6.00;5.40;;;7.50;32.40;;;;;;6290764;22;20172;-80
2021/04/09 07:32:29;;;;;;;6.55;5.38;;;7.70;32.50;;;;;;6291223;22;20220;-81
2021/04/09 07:35:02;;;;;;;5.78;4.93;;;7.90;31.20;;;;;;6277728;22;20608;-79
2021/04/09 07:37:29;;;;;;;6.15;4.78;;;7.90;31.80;;;;;;6283334;22;20216;-79
2021/04/09 07:39:57;;;;;;;5.93;5.32;;;8.00;31.70;;;;;;6279417;22;20185;-79
2021/04/09 07:42:35;;;;;;;5.72;4.93;;;8.20;31.00;;;;;;6276385;22;20205;-79
2021/04/09 07:45:08;;;;;;;6.10;5.35;;;8.50;31.20;;;;;;6281945;22;20197;-82
2021/04/09 07:47:34;;;;;;;7.15;5.18;;;8.60;29.90;;;;;;6287558;22;20205;-79
2021/04/09 07:50:08;;;;;;;6.63;5.32;;;8.70;29.60;;;;;;6285992;22;20193;-79
2021/04/09 07:52:43;;;;;;;10.15;5.50;;;8.80;29.60;;;;;;6281757;22;20193;-79
2021/04/09 07:55:18;;;;;;;6.90;5.15;;;8.70;30.00;;;;;;6279866;22;20236;-79
2021/04/09 07:57:46;;;;;;;5.65;5.03;;;8.60;30.30;;;;;;6279962;22;20194;-80
2021/04/09 08:00:22;;;;;;;7.25;4.95;;;9.00;29.80;;;;;;6282789;22;20182;-79
2021/04/09 08:02:50;;;;;;;5.40;4.90;;;9.20;29.90;;;;;;6287140;22;20165;-79
2021/04/09 08:05:18;;;;;;;9.35;5.30;;;9.40;29.80;;;;;;6284626;22;20208;-79
2021/04/09 08:07:44;;;;;;;11.60;5.10;;;9.50;29.10;;;;;;6284581;22;20226;-80
2021/04/09 08:10:13;;;;;;;5.57;5.03;;;9.50;29.40;;;;;;6286368;22;20173;-80
2021/04/09 08:12:40;;;;;;;6.85;5.32;;;9.70;28.10;;;;;;6290321;22;20181;-80
2021/04/09 08:15:15;;;;;;;6.47;5.03;;;9.70;28.40;;;;;;6292407;22;20176;-79
2021/04/09 08:17:43;;;;;;;8.32;5.60;;;9.80;27.70;;;;;;6298795;22;20211;-80
2021/04/09 08:20:14;;;;;;;9.40;5.72;;;10.00;27.50;;;;;;6298192;22;20274;-78
2021/04/09 08:22:41;;;;;;;12.13;4.78;;;10.00;26.80;;;;;;6279546;22;20503;-79
2021/04/09 08:25:09;;;;;;;6.38;4.78;;;10.20;25.80;;;;;;6280112;22;20292;-79
2021/04/09 08:27:37;;;;;;;7.25;4.05;;;10.40;25.60;;;;;;6286972;22;20201;-79
2021/04/09 08:30:05;;;;;;;5.10;4.25;;;10.60;25.00;;;;;;6284770;22;20169;-79
2021/04/09 08:32:32;;;;;;;7.45;5.72;;;10.80;24.00;;;;;;6294537;22;20176;-81
2021/04/09 08:35:00;;;;;;;6.55;4.30;;;10.90;23.60;;;;;;6286448;22;20477;-81
2021/04/09 08:37:27;;;;;;;4.90;4.13;;;11.10;23.00;;;;;;6286594;22;20216;-80
2021/04/09 08:39:54;;;;;;;5.78;3.90;;;11.00;22.40;;;;;;6285932;22;20612;-80
2021/04/09 08:42:21;;;;;;;6.70;3.97;;;11.00;22.40;;;;;;6283560;22;20191;-82
2021/04/09 08:44:47;;;;;;;6.30;4.40;;;11.20;22.60;;;;;;6281428;22;20208;-82
2021/04/09 08:47:17;;;;;;;8.20;4.35;;;11.40;22.80;;;;;;6281874;22;20204;-80
2021/04/09 08:49:44;;;;;;;5.20;4.70;;;11.60;23.30;;;;;;6281358;22;20181;-80
2021/04/09 08:52:14;;;;;;;8.05;4.88;;;11.80;23.00;;;;;;6278000;22;20256;-82
2021/04/09 08:54:50;;;;;;;7.85;4.00;;;11.90;23.10;;;;;;6283303;22;20193;-80
2021/04/09 08:57:30;;;;;;;12.68;4.20;;;12.10;23.20;;;;;;6282630;22;20259;-80
2021/04/09 09:00:09;;;;;;;6.60;4.25;;;12.20;23.30;;;;;;6298893;22;20186;-81
2021/04/09 09:02:47;;;;;;;5.82;3.85;;;12.60;23.60;;;;;;6285407;22;20165;-81
2021/04/09 09:05:15;;;;;;;6.53;4.10;;;12.70;22.80;;;;;;6283183;22;20257;-80
2021/04/09 09:08:07;;;;;;;3.85;3.45;;;12.90;21.80;;;;;;6280496;22;20200;-80
2021/04/09 09:10:55;;;;;;;4.18;3.60;;;13.30;21.00;;;;;;6281630;22;20166;-80
2021/04/09 09:13:29;;;;;;;6.68;3.65;;;13.10;19.80;;;;;;6286981;22;20165;-81
2021/04/09 09:16:01;;;;;;;8.65;3.92;;;12.90;20.60;;;;;;6289881;22;20176;-79
2021/04/09 09:18:42;;;;;;;5.00;3.85;;;12.70;20.60;;;;;;6286316;22;20474;-80
2021/04/09 09:21:11;;;;;;;4.80;4.03;;;12.60;20.40;;;;;;6284887;22;20177;-80
2021/04/09 09:23:49;;;;;;;5.53;4.22;;;12.50;20.60;;;;;;6278402;22;20181;-81
2021/04/09 09:26:21;;;;;;;5.10;4.50;;;12.60;20.30;;;;;;6282440;22;20288;-81
2021/04/09 09:28:48;;;;;;;5.45;4.20;;;12.80;20.40;;;;;;6281860;22;20480;-80
2021/04/09 09:31:29;;;;;;;8.88;4.10;;;13.30;19.90;;;;;;6281621;22;20208;-79
2021/04/09 09:34:41;;;;;;;4.57;4.05;;;13.60;19.10;;;;;;6277164;22;20853;-79
2021/04/09 09:37:11;;;;;;;4.40;4.00;;;13.80;19.00;;;;;;6278053;22;20201;-80
2021/04/09 09:39:41;;;;;;;6.28;4.00;;;13.70;18.70;;;;;;6295119;22;20170;-80
2021/04/09 09:42:14;;;;;;;8.07;4.25;;;13.90;18.90;;;;;;6292333;22;20200;-81
2021/04/09 09:44:47;;;;;;;6.60;4.25;;;14.10;17.50;;;;;;6287290;22;20212;-80
2021/04/09 09:47:25;;;;;;;4.97;4.15;;;14.00;18.00;;;;;;6285687;22;20284;-79
2021/04/09 09:50:19;;;;;;;5.53;4.07;;;14.30;17.60;;;;;;6285681;22;20184;-78
2021/04/09 09:52:47;;;;;;;3.83;3.45;;;14.30;17.60;;;;;;6290508;22;20181;-81
2021/04/09 09:55:23;;;;;;;6.80;4.55;;;14.50;17.70;;;;;;6277902;22;20185;-78
2021/04/09 09:57:51;;;;;;;9.20;4.10;;;15.00;17.00;;;;;;6281066;22;20200;-78
2021/04/09 10:00:33;;;;;;;4.55;3.92;;;15.00;17.00;;;;;;6278828;22;20185;-79
2021/04/09 10:03:16;;;;;;;6.00;4.60;;;15.20;15.90;;;;;;6284003;22;20166;-80
2021/04/09 10:05:44;;;;;;;5.38;4.05;;;15.00;15.70;;;;;;6286202;22;20432;-80
2021/04/09 10:08:11;;;;;;;5.93;4.35;;;14.70;16.10;;;;;;6286665;22;20222;-80
2021/04/09 10:10:41;;;;;;;4.30;3.90;;;14.30;16.10;;;;;;6286119;22;20188;-81
2021/04/09 10:13:23;;;;;;;4.55;4.15;;;14.30;15.80;;;;;;6283814;22;20185;-81
2021/04/09 10:15:51;;;;;;;5.30;3.80;;;14.10;16.40;;;;;;6284960;22;20173;-82
2021/04/09 10:18:17;;;;;;;5.07;3.47;;;14.10;16.40;;;;;;6278468;22;20706;-80
2021/04/09 10:20:47;;;;;;;6.88;3.90;;;14.30;16.50;;;;;;6287466;22;20205;-81
2021/04/09 10:23:13;;;;;;;3.75;3.35;;;14.40;15.90;;;;;;6289003;22;20188;-82
2021/04/09 10:25:41;;;;;;;4.35;3.95;;;14.50;15.60;;;;;;6287530;22;20198;-80
2021/04/09 10:28:12;;;;;;;4.65;3.90;;;14.40;15.80;;;;;;6287856;22;20346;-80
2021/04/09 10:30:40;;;;;;;4.80;3.42;;;14.20;16.50;;;;;;6286308;22;20165;-80
2021/04/09 10:33:07;;;;;;;4.57;3.35;;;14.20;16.50;;;;;;6279721;22;20295;-79
2021/04/09 10:35:35;;;;;;;7.63;4.43;;;14.20;16.50;;;;;;6281180;22;20181;-81
2021/04/09 10:38:09;;;;;;;5.75;4.18;;;14.40;16.60;;;;;;6285794;22;20209;-80
2021/04/09 10:40:49;;;;;;;9.50;4.20;;;14.40;16.60;;;;;;6288150;22;20173;-80
2021/04/09 10:43:27;;;;;;;6.38;4.40;;;14.40;16.60;;;;;;6283927;22;20173;-80
2021/04/09 10:46:06;;;;;;;7.93;4.35;;;14.20;16.50;;;;;;6287798;22;20185;-80
2021/04/09 10:48:33;;;;;;;6.63;3.78;;;14.40;16.60;;;;;;6288544;22;20193;-79
2021/04/09 10:50:59;;;;;;;4.35;3.40;;;14.70;16.80;;;;;;6288564;22;20533;-80
2021/04/09 10:53:26;;;;;;;5.00;3.30;;;14.70;16.80;;;;;;6288239;22;20181;-79
2021/04/09 10:55:59;;;;;;;3.42;3.10;;;14.90;16.40;;;;;;6285735;22;20192;-79
2021/04/09 10:58:25;;;;;;;4.63;3.22;;;15.00;15.90;;;;;;6285661;22;20219;-80
2021/04/09 11:00:52;;;;;;;4.28;3.53;;;14.90;16.10;;;;;;6301493;22;20185;-83
2021/04/09 11:03:18;;;;;;;5.03;3.15;;;14.90;15.90;;;;;;6285065;22;20188;-78
2021/04/09 11:05:45;;;;;;;7.53;2.90;;;15.10;15.60;;;;;;6278164;22;20475;-79
2021/04/09 11:08:11;;;;;;;7.00;3.70;;;15.20;15.50;;;;;;6277111;22;20224;-79
2021/04/09 11:10:38;;;;;;;4.35;3.40;;;15.10;15.60;;;;;;6275146;22;20390;-79
2021/04/09 11:13:06;;;;;;;2.80;2.60;;;15.20;15.60;;;;;;6282965;22;20209;-80
2021/04/09 11:15:39;;;;;;;4.23;3.30;;;15.20;16.10;;;;;;6281339;22;20604;-80
2021/04/09 11:18:05;;;;;;;7.90;3.27;;;15.30;16.20;;;;;;6285607;22;20471;-81
2021/04/09 11:20:34;;;;;;;8.23;3.60;;;15.40;15.80;;;;;;6288709;22;20416;-81
2021/04/09 11:23:01;;;;;;;4.40;3.40;;;15.30;16.00;;;;;;6283929;22;20395;-80
2021/04/09 11:25:35;;;;;;;5.97;3.43;;;15.30;16.40;;;;;;6282518;22;20430;-81
2021/04/09 11:28:02;;;;;;;4.10;3.08;;;15.50;16.30;;;;;;6277331;22;20402;-78
2021/04/09 11:30:35;;;;;;;6.27;3.33;;;15.40;16.40;;;;;;6277945;22;20165;-79
2021/04/09 11:33:02;;;;;;;6.23;3.53;;;15.40;16.00;;;;;;6277115;22;20435;-80
2021/04/09 11:35:34;;;;;;;5.10;3.37;;;15.30;16.30;;;;;;6278076;22;20419;-79
2021/04/09 11:38:06;;;;;;;4.43;3.30;;;15.50;16.50;;;;;;6278410;22;20697;-80
2021/04/09 11:40:37;;;;;;;5.90;3.10;;;15.70;16.10;;;;;;6279182;22;20766;-82
2021/04/09 11:43:05;;;;;;;5.15;3.45;;;15.90;16.20;;;;;;6283419;22;20403;-80
2021/04/09 11:45:41;;;;;;;7.03;3.80;;;15.70;15.90;;;;;;6287238;22;20439;-82
2021/04/09 11:48:27;;;;;;;3.60;3.10;;;15.60;16.10;;;;;;6279743;22;20399;-79
2021/04/09 11:50:55;;;;;;;8.30;3.63;;;15.70;16.20;;;;;;6280178;22;20189;-80
2021/04/09 11:53:22;;;;;;;5.90;3.17;;;15.80;15.90;;;;;;6281857;22;20479;-80
2021/04/09 11:55:49;;;;;;;12.13;3.40;;;15.90;15.60;;;;;;6278223;22;20389;-79
2021/04/09 11:58:20;;;;;;;3.30;3.00;;;15.80;15.70;;;;;;6278128;22;20435;-79
2021/04/09 12:00:58;;;;;;;4.57;3.73;;;15.90;15.50;;;;;;6277931;22;20483;-79
2021/04/09 12:03:38;;;;;;;4.60;3.10;;;15.90;15.90;;;;;;6278564;22;20366;-79
2021/04/09 12:06:12;;;;;;;7.10;3.83;;;16.10;16.00;;;;;;6280528;22;20402;-80
2021/04/09 12:08:39;;;;;;;7.03;4.30;;;16.40;15.50;;;;;;6283014;22;20443;-79
2021/04/09 12:11:07;;;;;;;8.10;3.57;;;16.50;15.30;;;;;;6281365;22;20514;-78
2021/04/09 12:13:34;;;;;;;6.50;4.00;;;16.70;15.50;;;;;;6288993;22;20406;-78
2021/04/09 12:16:01;;;;;;;6.37;3.53;;;16.70;15.10;;;;;;6281358;22;20416;-78
2021/04/09 12:18:31;;;;;;;5.67;3.30;;;16.80;15.60;;;;;;6283396;22;20378;-78
2021/04/09 12:20:58;;;;;;;6.83;3.87;;;17.10;15.20;;;;;;6286938;22;20422;-79
2021/04/09 12:23:25;;;;;;;8.10;3.70;;;17.20;14.80;;;;;;6289863;22;20375;-79
2021/04/09 12:25:53;;;;;;;5.30;3.93;;;17.10;15.40;;;;;;6293801;22;20779;-78
2021/04/09 12:28:20;;;;;;;5.70;4.57;;;17.30;14.70;;;;;;6298512;22;20381;-77
2021/04/09 12:30:46;;;;;;;5.00;3.80;;;17.60;14.70;;;;;;6300716;22;20453;-78
2021/04/09 12:33:13;;;;;;;3.97;3.30;;;17.80;14.40;;;;;;6299452;22;20386;-79
2021/04/09 12:35:40;;;;;;;5.50;3.37;;;18.00;14.00;;;;;;6298415;22;20422;-78
2021/04/09 12:38:06;;;;;;;10.40;3.80;;;18.00;13.80;;;;;;6296550;22;20387;-77
2021/04/09 12:40:33;;;;;;;4.67;3.33;;;17.90;14.20;;;;;;6297328;22;20389;-81
2021/04/09 12:43:00;;;;;;;13.60;3.63;;;18.00;14.00;;;;;;6288310;22;20424;-80
2021/04/09 12:45:26;;;;;;;4.27;3.33;;;18.10;13.90;;;;;;6287918;22;20444;-79
2021/04/09 12:47:53;;;;;;;3.87;3.40;;;17.90;14.20;;;;;;6288239;22;20394;-80
2021/04/09 12:50:20;;;;;;;4.50;3.20;;;18.00;14.00;;;;;;6296000;22;20412;-79
2021/04/09 12:52:47;;;;;;;3.07;2.77;;;18.10;13.90;;;;;;6298379;22;20382;-78
2021/04/09 12:55:14;;;;;;;4.83;3.60;;;17.90;13.60;;;;;;6298949;22;20395;-78
2021/04/09 12:57:40;;;;;;;5.00;2.70;;;17.80;13.90;;;;;;6299827;22;20468;-77
2021/04/09 13:00:08;;;;;;;6.47;3.20;;;17.90;14.20;;;;;;6301339;22;20415;-76
2021/04/09 13:02:34;;;;;;;4.80;3.17;;;18.10;13.80;;;;;;6301348;22;20370;-76
2021/04/09 13:05:01;;;;;;;3.63;2.70;;;18.30;13.80;;;;;;6297448;22;20423;-78